sensor_id;sensor_type;location;lat;lon;timestamp;pressure;altitude;pressure_sealevel;temperature;humidity
54194;BME280;40102;50.906;6.972;2022-11-25T00:02:04;100628.03;;;7.22;85.62
54194;BME280;40102;50.906;6.972;2022-11-25T00:04:29;100621.59;;;7.27;85.73
54194;BME280;40102;50.906;6.972;2022-11-25T00:07:00;100618.84;;;7.29;85.43
54194;BME280;40102;50.906;6.972;2022-11-25T00:09:26;100623.44;;;7.25;85.26
54194;BME280;40102;50.906;6.972;2022-11-25T00:11:51;100600.91;;;7.13;85.54
54194;BME280;40102;50.906;6.972;2022-11-25T00:14:16;100592.13;;;7.11;86.50
54194;BME280;40102;50.906;6.972;2022-11-25T00:16:41;100594.72;;;7.13;86.71
54194;BME280;40102;50.906;6.972;2022-11-25T00:19:08;100594.59;;;7.16;85.99
54194;BME280;40102;50.906;6.972;2022-11-25T00:21:33;100586.59;;;7.16;86.16
54194;BME280;40102;50.906;6.972;2022-11-25T00:24:00;100588.34;;;7.17;86.08
54194;BME280;40102;50.906;6.972;2022-11-25T00:26:26;100586.53;;;7.18;85.95
54194;BME280;40102;50.906;6.972;2022-11-25T00:28:52;100582.16;;;7.17;86.15
54194;BME280;40102;50.906;6.972;2022-11-25T00:31:19;100584.75;;;7.18;86.36
54194;BME280;40102;50.906;6.972;2022-11-25T00:33:44;100580.16;;;7.22;86.43
54194;BME280;40102;50.906;6.972;2022-11-25T00:36:14;100580.88;;;7.25;86.14
54194;BME280;40102;50.906;6.972;2022-11-25T00:38:40;100573.28;;;7.36;85.58
54194;BME280;40102;50.906;6.972;2022-11-25T00:41:05;100565.88;;;7.43;85.51
54194;BME280;40102;50.906;6.972;2022-11-25T00:43:49;100557.31;;;7.36;85.51
54194;BME280;40102;50.906;6.972;2022-11-25T00:46:33;100551.94;;;7.38;86.11
54194;BME280;40102;50.906;6.972;2022-11-25T00:48:58;100551.19;;;7.34;86.03
54194;BME280;40102;50.906;6.972;2022-11-25T00:51:23;100544.16;;;7.33;86.17
54194;BME280;40102;50.906;6.972;2022-11-25T00:53:48;100554.06;;;7.30;86.16
54194;BME280;40102;50.906;6.972;2022-11-25T00:56:14;100568.38;;;7.27;86.52
54194;BME280;40102;50.906;6.972;2022-11-25T00:58:42;100568.56;;;7.23;86.69
54194;BME280;40102;50.906;6.972;2022-11-25T01:01:08;100565.84;;;7.24;87.16
54194;BME280;40102;50.906;6.972;2022-11-25T01:03:34;100565.84;;;7.24;86.78
54194;BME280;40102;50.906;6.972;2022-11-25T01:06:03;100566.78;;;7.23;87.04
54194;BME280;40102;50.906;6.972;2022-11-25T01:08:29;100552.81;;;7.18;87.60
54194;BME280;40102;50.906;6.972;2022-11-25T01:10:58;100568.78;;;7.18;87.60
54194;BME280;40102;50.906;6.972;2022-11-25T01:13:24;100566.66;;;7.26;87.59
54194;BME280;40102;50.906;6.972;2022-11-25T01:15:49;100569.44;;;7.23;87.47
54194;BME280;40102;50.906;6.972;2022-11-25T01:18:14;100565.25;;;7.18;87.53
54194;BME280;40102;50.906;6.972;2022-11-25T01:20:39;100561.72;;;7.17;88.31
54194;BME280;40102;50.906;6.972;2022-11-25T01:23:04;100570.56;;;7.18;88.11
54194;BME280;40102;50.906;6.972;2022-11-25T01:25:30;100583.00;;;7.17;88.40
54194;BME280;40102;50.906;6.972;2022-11-25T01:27:55;100567.31;;;7.11;89.23
54194;BME280;40102;50.906;6.972;2022-11-25T01:30:20;100561.88;;;7.14;88.99
54194;BME280;40102;50.906;6.972;2022-11-25T01:32:45;100575.09;;;7.15;89.11
54194;BME280;40102;50.906;6.972;2022-11-25T01:35:11;100570.91;;;7.10;89.20
54194;BME280;40102;50.906;6.972;2022-11-25T01:37:36;100556.63;;;7.12;89.48
54194;BME280;40102;50.906;6.972;2022-11-25T01:40:02;100564.13;;;7.03;89.85
54194;BME280;40102;50.906;6.972;2022-11-25T01:42:30;100574.56;;;7.07;89.99
54194;BME280;40102;50.906;6.972;2022-11-25T01:47:39;100565.59;;;7.10;89.56
54194;BME280;40102;50.906;6.972;2022-11-25T01:50:04;100558.41;;;7.12;89.84
54194;BME280;40102;50.906;6.972;2022-11-25T01:52:35;100556.28;;;7.20;90.52
54194;BME280;40102;50.906;6.972;2022-11-25T01:57:28;100570.91;;;7.30;89.51
54194;BME280;40102;50.906;6.972;2022-11-25T01:59:56;100564.13;;;7.23;89.29
54194;BME280;40102;50.906;6.972;2022-11-25T02:02:23;100573.81;;;7.24;89.54
54194;BME280;40102;50.906;6.972;2022-11-25T02:04:49;100564.06;;;7.25;90.26
54194;BME280;40102;50.906;6.972;2022-11-25T02:07:36;100568.50;;;7.24;89.85
54194;BME280;40102;50.906;6.972;2022-11-25T02:10:01;100564.91;;;7.25;90.12
54194;BME280;40102;50.906;6.972;2022-11-25T02:12:27;100562.25;;;7.25;90.43
54194;BME280;40102;50.906;6.972;2022-11-25T02:14:53;100558.47;;;7.31;90.78
54194;BME280;40102;50.906;6.972;2022-11-25T02:17:19;100558.38;;;7.32;90.27
54194;BME280;40102;50.906;6.972;2022-11-25T02:22:14;100547.47;;;7.38;90.29
54194;BME280;40102;50.906;6.972;2022-11-25T02:24:46;100532.16;;;7.43;90.44
54194;BME280;40102;50.906;6.972;2022-11-25T02:27:15;100543.47;;;7.48;89.86
54194;BME280;40102;50.906;6.972;2022-11-25T02:29:41;100527.56;;;7.47;89.92
54194;BME280;40102;50.906;6.972;2022-11-25T02:32:07;100537.28;;;7.48;90.52
54194;BME280;40102;50.906;6.972;2022-11-25T02:34:32;100530.88;;;7.52;90.17
54194;BME280;40102;50.906;6.972;2022-11-25T02:37:00;100538.00;;;7.52;90.09
54194;BME280;40102;50.906;6.972;2022-11-25T02:39:25;100538.94;;;7.51;90.53
54194;BME280;40102;50.906;6.972;2022-11-25T02:41:52;100542.66;;;7.46;90.73
54194;BME280;40102;50.906;6.972;2022-11-25T02:44:20;100545.19;;;7.50;90.83
54194;BME280;40102;50.906;6.972;2022-11-25T02:46:45;100541.16;;;7.60;90.66
54194;BME280;40102;50.906;6.972;2022-11-25T02:49:10;100539.44;;;7.59;90.36
54194;BME280;40102;50.906;6.972;2022-11-25T02:51:37;100545.78;;;7.56;90.85
54194;BME280;40102;50.906;6.972;2022-11-25T02:54:03;100541.31;;;7.57;90.84
54194;BME280;40102;50.906;6.972;2022-11-25T02:56:29;100538.78;;;7.54;90.93
54194;BME280;40102;50.906;6.972;2022-11-25T02:58:55;100544.19;;;7.52;91.31
54194;BME280;40102;50.906;6.972;2022-11-25T03:01:21;100537.00;;;7.54;91.42
54194;BME280;40102;50.906;6.972;2022-11-25T03:03:46;100534.13;;;7.59;91.40
54194;BME280;40102;50.906;6.972;2022-11-25T03:06:11;100529.66;;;7.59;91.49
54194;BME280;40102;50.906;6.972;2022-11-25T03:08:36;100522.47;;;7.61;91.48
54194;BME280;40102;50.906;6.972;2022-11-25T03:11:02;100519.72;;;7.63;91.61
54194;BME280;40102;50.906;6.972;2022-11-25T03:13:28;100524.34;;;7.59;91.95
54194;BME280;40102;50.906;6.972;2022-11-25T03:15:53;100525.84;;;7.65;91.99
54194;BME280;40102;50.906;6.972;2022-11-25T03:18:18;100522.75;;;7.74;91.60
54194;BME280;40102;50.906;6.972;2022-11-25T03:20:44;100532.47;;;7.75;91.25
54194;BME280;40102;50.906;6.972;2022-11-25T03:23:09;100552.84;;;7.76;91.33
54194;BME280;40102;50.906;6.972;2022-11-25T03:25:34;100563.19;;;7.82;90.96
54194;BME280;40102;50.906;6.972;2022-11-25T03:28:00;100555.84;;;7.87;90.34
54194;BME280;40102;50.906;6.972;2022-11-25T03:30:26;100553.78;;;7.94;89.76
54194;BME280;40102;50.906;6.972;2022-11-25T03:32:52;100564.34;;;7.95;89.64
54194;BME280;40102;50.906;6.972;2022-11-25T03:35:17;100563.41;;;7.96;89.72
54194;BME280;40102;50.906;6.972;2022-11-25T03:37:43;100557.22;;;7.96;89.57
54194;BME280;40102;50.906;6.972;2022-11-25T03:40:08;100553.63;;;7.97;89.66
54194;BME280;40102;50.906;6.972;2022-11-25T03:42:34;100548.28;;;7.97;89.73
54194;BME280;40102;50.906;6.972;2022-11-25T03:44:59;100547.44;;;7.96;89.77
54194;BME280;40102;50.906;6.972;2022-11-25T03:47:25;100552.63;;;7.99;89.72
54194;BME280;40102;50.906;6.972;2022-11-25T03:49:50;100577.94;;;8.08;88.50
54194;BME280;40102;50.906;6.972;2022-11-25T03:52:15;100586.44;;;8.16;88.21
54194;BME280;40102;50.906;6.972;2022-11-25T03:54:41;100588.03;;;8.20;87.77
54194;BME280;40102;50.906;6.972;2022-11-25T03:57:06;100587.16;;;8.20;87.55
54194;BME280;40102;50.906;6.972;2022-11-25T03:59:31;100592.56;;;8.18;87.68
54194;BME280;40102;50.906;6.972;2022-11-25T04:01:57;100582.06;;;8.15;87.60
54194;BME280;40102;50.906;6.972;2022-11-25T04:04:22;100591.06;;;8.12;88.17
54194;BME280;40102;50.906;6.972;2022-11-25T04:06:47;100576.06;;;8.10;88.42
54194;BME280;40102;50.906;6.972;2022-11-25T04:09:13;100574.28;;;8.10;88.28
54194;BME280;40102;50.906;6.972;2022-11-25T04:11:38;100578.81;;;8.08;88.60
54194;BME280;40102;50.906;6.972;2022-11-25T04:14:22;100574.41;;;8.07;88.33
54194;BME280;40102;50.906;6.972;2022-11-25T04:16:47;100584.34;;;8.04;88.57
54194;BME280;40102;50.906;6.972;2022-11-25T04:19:12;100584.50;;;8.01;88.89
54194;BME280;40102;50.906;6.972;2022-11-25T04:21:38;100577.59;;;7.97;89.11
54194;BME280;40102;50.906;6.972;2022-11-25T04:24:03;100579.31;;;7.98;89.22
54194;BME280;40102;50.906;6.972;2022-11-25T04:26:28;100576.72;;;7.96;89.25
54194;BME280;40102;50.906;6.972;2022-11-25T04:28:53;100581.19;;;7.96;89.24
54194;BME280;40102;50.906;6.972;2022-11-25T04:31:19;100580.31;;;7.95;89.57
54194;BME280;40102;50.906;6.972;2022-11-25T04:33:44;100583.06;;;7.94;89.81
54194;BME280;40102;50.906;6.972;2022-11-25T04:36:09;100591.06;;;7.94;89.78
54194;BME280;40102;50.906;6.972;2022-11-25T04:38:35;100583.06;;;7.94;90.38
54194;BME280;40102;50.906;6.972;2022-11-25T04:41:00;100588.38;;;7.94;90.66
54194;BME280;40102;50.906;6.972;2022-11-25T04:43:25;100587.75;;;7.89;91.89
54194;BME280;40102;50.906;6.972;2022-11-25T04:45:51;100591.28;;;7.89;92.25
54194;BME280;40102;50.906;6.972;2022-11-25T04:48:17;100585.94;;;7.89;92.38
54194;BME280;40102;50.906;6.972;2022-11-25T04:50:42;100591.28;;;7.89;92.69
54194;BME280;40102;50.906;6.972;2022-11-25T04:53:07;100595.66;;;7.90;93.07
54194;BME280;40102;50.906;6.972;2022-11-25T04:55:32;100603.06;;;7.84;93.67
54194;BME280;40102;50.906;6.972;2022-11-25T04:57:58;100599.91;;;7.75;94.85
54194;BME280;40102;50.906;6.972;2022-11-25T05:00:23;100604.34;;;7.75;95.64
54194;BME280;40102;50.906;6.972;2022-11-25T05:02:48;100609.88;;;7.70;96.27
54194;BME280;40102;50.906;6.972;2022-11-25T05:05:14;100611.03;;;7.65;97.18
54194;BME280;40102;50.906;6.972;2022-11-25T05:07:39;100600.44;;;7.63;97.76
54194;BME280;40102;50.906;6.972;2022-11-25T05:10:05;100604.84;;;7.64;97.94
54194;BME280;40102;50.906;6.972;2022-11-25T05:12:30;100602.13;;;7.66;98.19
54194;BME280;40102;50.906;6.972;2022-11-25T05:14:56;100611.25;;;7.60;98.36
54194;BME280;40102;50.906;6.972;2022-11-25T05:17:22;100608.66;;;7.59;98.85
54194;BME280;40102;50.906;6.972;2022-11-25T05:19:49;100615.84;;;7.57;99.17
54194;BME280;40102;50.906;6.972;2022-11-25T05:22:16;100618.69;;;7.52;99.47
54194;BME280;40102;50.906;6.972;2022-11-25T05:24:41;100616.13;;;7.51;99.66
54194;BME280;40102;50.906;6.972;2022-11-25T05:27:07;100621.16;;;7.57;100.00
54194;BME280;40102;50.906;6.972;2022-11-25T05:29:32;100612.25;;;7.58;99.47
54194;BME280;40102;50.906;6.972;2022-11-25T05:31:57;100623.81;;;7.57;99.36
54194;BME280;40102;50.906;6.972;2022-11-25T05:34:22;100625.56;;;7.58;99.66
54194;BME280;40102;50.906;6.972;2022-11-25T05:36:48;100631.00;;;7.55;99.14
54194;BME280;40102;50.906;6.972;2022-11-25T05:39:13;100630.00;;;7.57;99.22
54194;BME280;40102;50.906;6.972;2022-11-25T05:41:38;100630.16;;;7.54;98.87
54194;BME280;40102;50.906;6.972;2022-11-25T05:44:04;100635.47;;;7.54;98.94
54194;BME280;40102;50.906;6.972;2022-11-25T05:46:32;100628.47;;;7.52;99.10
54194;BME280;40102;50.906;6.972;2022-11-25T05:48:58;100625.16;;;7.46;99.33
54194;BME280;40102;50.906;6.972;2022-11-25T05:51:23;100644.06;;;7.40;100.00
54194;BME280;40102;50.906;6.972;2022-11-25T05:53:49;100636.41;;;7.33;100.00
54194;BME280;40102;50.906;6.972;2022-11-25T05:56:14;100631.09;;;7.33;100.00
54194;BME280;40102;50.906;6.972;2022-11-25T05:58:40;100637.34;;;7.32;100.00
54194;BME280;40102;50.906;6.972;2022-11-25T06:01:06;100637.34;;;7.32;100.00
54194;BME280;40102;50.906;6.972;2022-11-25T06:03:32;100644.31;;;7.34;100.00
54194;BME280;40102;50.906;6.972;2022-11-25T06:05:58;100647.59;;;7.41;100.00
54194;BME280;40102;50.906;6.972;2022-11-25T06:08:24;100658.28;;;7.39;100.00
54194;BME280;40102;50.906;6.972;2022-11-25T06:10:49;100652.13;;;7.39;100.00
54194;BME280;40102;50.906;6.972;2022-11-25T06:13:14;100658.91;;;7.46;100.00
54194;BME280;40102;50.906;6.972;2022-11-25T06:15:40;100666.75;;;7.49;100.00
54194;BME280;40102;50.906;6.972;2022-11-25T06:18:07;100669.34;;;7.51;100.00
54194;BME280;40102;50.906;6.972;2022-11-25T06:20:32;100682.50;;;7.54;100.00
54194;BME280;40102;50.906;6.972;2022-11-25T06:22:57;100679.84;;;7.54;100.00
54194;BME280;40102;50.906;6.972;2022-11-25T06:25:23;100681.84;;;7.48;100.00
54194;BME280;40102;50.906;6.972;2022-11-25T06:27:48;100682.84;;;7.46;100.00
54194;BME280;40102;50.906;6.972;2022-11-25T06:30:13;100677.47;;;7.47;100.00
54194;BME280;40102;50.906;6.972;2022-11-25T06:32:39;100678.31;;;7.48;100.00
54194;BME280;40102;50.906;6.972;2022-11-25T06:35:04;100683.66;;;7.48;100.00
54194;BME280;40102;50.906;6.972;2022-11-25T06:37:30;100687.19;;;7.48;100.00
54194;BME280;40102;50.906;6.972;2022-11-25T06:39:56;100691.69;;;7.46;100.00
54194;BME280;40102;50.906;6.972;2022-11-25T06:42:21;100702.41;;;7.45;100.00
54194;BME280;40102;50.906;6.972;2022-11-25T06:44:46;100703.47;;;7.41;100.00
54194;BME280;40102;50.906;6.972;2022-11-25T06:47:11;100699.00;;;7.41;100.00
54194;BME280;40102;50.906;6.972;2022-11-25T06:49:37;100695.44;;;7.42;100.00
54194;BME280;40102;50.906;6.972;2022-11-25T06:52:02;100712.13;;;7.46;100.00
54194;BME280;40102;50.906;6.972;2022-11-25T06:54:27;100720.09;;;7.46;100.00
54194;BME280;40102;50.906;6.972;2022-11-25T06:56:52;100712.31;;;7.41;100.00
54194;BME280;40102;50.906;6.972;2022-11-25T06:59:18;100714.38;;;7.35;100.00
54194;BME280;40102;50.906;6.972;2022-11-25T07:01:44;100725.94;;;7.34;100.00
54194;BME280;40102;50.906;6.972;2022-11-25T07:04:09;100716.19;;;7.34;100.00
54194;BME280;40102;50.906;6.972;2022-11-25T07:06:34;100716.97;;;7.36;100.00
54194;BME280;40102;50.906;6.972;2022-11-25T07:09:00;100714.31;;;7.36;100.00
54194;BME280;40102;50.906;6.972;2022-11-25T07:11:26;100713.38;;;7.37;100.00
54194;BME280;40102;50.906;6.972;2022-11-25T07:13:53;100708.00;;;7.39;100.00
54194;BME280;40102;50.906;6.972;2022-11-25T07:16:18;100719.25;;;7.45;100.00
54194;BME280;40102;50.906;6.972;2022-11-25T07:18:44;100721.78;;;7.48;100.00
54194;BME280;40102;50.906;6.972;2022-11-25T07:21:10;100725.97;;;7.54;100.00
54194;BME280;40102;50.906;6.972;2022-11-25T07:23:36;100717.97;;;7.54;100.00
54194;BME280;40102;50.906;6.972;2022-11-25T07:26:02;100732.28;;;7.52;100.00
54194;BME280;40102;50.906;6.972;2022-11-25T07:28:28;100736.69;;;7.53;100.00
54194;BME280;40102;50.906;6.972;2022-11-25T07:30:53;100736.81;;;7.50;100.00
54194;BME280;40102;50.906;6.972;2022-11-25T07:33:18;100738.47;;;7.52;100.00
54194;BME280;40102;50.906;6.972;2022-11-25T07:35:44;100740.41;;;7.48;100.00
54194;BME280;40102;50.906;6.972;2022-11-25T07:38:09;100744.06;;;7.46;100.00
54194;BME280;40102;50.906;6.972;2022-11-25T07:40:34;100756.38;;;7.48;100.00
54194;BME280;40102;50.906;6.972;2022-11-25T07:42:59;100762.50;;;7.51;100.00
54194;BME280;40102;50.906;6.972;2022-11-25T07:45:25;100760.75;;;7.50;100.00
54194;BME280;40102;50.906;6.972;2022-11-25T07:47:51;100772.34;;;7.48;100.00
54194;BME280;40102;50.906;6.972;2022-11-25T07:50:16;100778.47;;;7.51;100.00
54194;BME280;40102;50.906;6.972;2022-11-25T07:52:41;100780.34;;;8.09;100.00
54194;BME280;40102;50.906;6.972;2022-11-25T07:55:06;100782.75;;;8.55;100.00
54194;BME280;40102;50.906;6.972;2022-11-25T07:57:32;100790.84;;;8.91;100.00
54194;BME280;40102;50.906;6.972;2022-11-25T07:59:57;100797.16;;;9.43;100.00
54194;BME280;40102;50.906;6.972;2022-11-25T08:02:22;100794.28;;;9.82;100.00
54194;BME280;40102;50.906;6.972;2022-11-25T08:04:47;100797.66;;;10.03;100.00
54194;BME280;40102;50.906;6.972;2022-11-25T08:07:13;100789.50;;;10.06;100.00
54194;BME280;40102;50.906;6.972;2022-11-25T08:09:38;100791.38;;;9.69;100.00
54194;BME280;40102;50.906;6.972;2022-11-25T08:12:03;100799.19;;;9.38;100.00
54194;BME280;40102;50.906;6.972;2022-11-25T08:14:28;100789.38;;;9.02;96.70
54194;BME280;40102;50.906;6.972;2022-11-25T08:16:54;100797.69;;;8.77;96.24
54194;BME280;40102;50.906;6.972;2022-11-25T08:19:19;100799.69;;;8.54;95.35
54194;BME280;40102;50.906;6.972;2022-11-25T08:21:44;100818.31;;;8.35;96.19
54194;BME280;40102;50.906;6.972;2022-11-25T08:24:12;100808.16;;;8.23;97.09
54194;BME280;40102;50.906;6.972;2022-11-25T08:26:39;100811.84;;;8.20;98.15
54194;BME280;40102;50.906;6.972;2022-11-25T08:29:05;100817.97;;;8.22;98.56
54194;BME280;40102;50.906;6.972;2022-11-25T08:31:31;100816.81;;;8.28;98.78
54194;BME280;40102;50.906;6.972;2022-11-25T08:33:57;100823.72;;;8.33;98.44
54194;BME280;40102;50.906;6.972;2022-11-25T08:36:23;100836.75;;;8.39;98.02
54194;BME280;40102;50.906;6.972;2022-11-25T08:38:49;100831.22;;;8.44;97.63
54194;BME280;40102;50.906;6.972;2022-11-25T08:41:22;100835.41;;;8.50;96.75
54194;BME280;40102;50.906;6.972;2022-11-25T08:43:48;100845.72;;;8.57;96.13
54194;BME280;40102;50.906;6.972;2022-11-25T08:46:15;100839.59;;;8.55;95.55
54194;BME280;40102;50.906;6.972;2022-11-25T08:48:40;100844.16;;;8.53;95.64
54194;BME280;40102;50.906;6.972;2022-11-25T08:51:10;100848.59;;;8.53;96.04
54194;BME280;40102;50.906;6.972;2022-11-25T08:53:36;100845.22;;;8.49;95.97
54194;BME280;40102;50.906;6.972;2022-11-25T08:56:02;100844.41;;;8.47;96.44
54194;BME280;40102;50.906;6.972;2022-11-25T08:58:27;100852.41;;;8.47;96.33
54194;BME280;40102;50.906;6.972;2022-11-25T09:00:52;100851.47;;;8.48;96.40
54194;BME280;40102;50.906;6.972;2022-11-25T09:03:18;100861.22;;;8.49;96.31
54194;BME280;40102;50.906;6.972;2022-11-25T09:05:43;100861.94;;;8.53;96.19
54194;BME280;40102;50.906;6.972;2022-11-25T09:08:09;100867.19;;;8.54;96.33
54194;BME280;40102;50.906;6.972;2022-11-25T09:10:35;100872.47;;;8.56;96.39
54194;BME280;40102;50.906;6.972;2022-11-25T09:13:00;100877.66;;;8.59;96.41
54194;BME280;40102;50.906;6.972;2022-11-25T09:15:25;100880.19;;;8.62;96.47
54194;BME280;40102;50.906;6.972;2022-11-25T09:18:01;100880.13;;;8.63;96.27
54194;BME280;40102;50.906;6.972;2022-11-25T09:20:27;100873.06;;;8.62;95.75
54194;BME280;40102;50.906;6.972;2022-11-25T09:22:52;100878.25;;;8.65;95.84
54194;BME280;40102;50.906;6.972;2022-11-25T09:25:18;100876.31;;;8.69;95.84
54194;BME280;40102;50.906;6.972;2022-11-25T09:27:43;100890.22;;;8.75;95.62
54194;BME280;40102;50.906;6.972;2022-11-25T09:30:09;100883.09;;;8.76;95.58
54194;BME280;40102;50.906;6.972;2022-11-25T09:32:34;100891.81;;;8.80;95.03
54194;BME280;40102;50.906;6.972;2022-11-25T09:35:00;100896.09;;;8.84;95.13
54194;BME280;40102;50.906;6.972;2022-11-25T09:37:25;100899.53;;;8.86;94.16
54194;BME280;40102;50.906;6.972;2022-11-25T09:39:51;100908.28;;;8.89;93.99
54194;BME280;40102;50.906;6.972;2022-11-25T09:45:27;100906.34;;;8.93;93.13
54194;BME280;40102;50.906;6.972;2022-11-25T09:55:53;100923.50;;;9.06;92.84
54194;BME280;40102;50.906;6.972;2022-11-25T09:58:29;100931.44;;;9.07;92.92
54194;BME280;40102;50.906;6.972;2022-11-25T10:00:56;100924.22;;;9.09;92.72
54194;BME280;40102;50.906;6.972;2022-11-25T10:08:55;100929.22;;;9.17;91.59
54194;BME280;40102;50.906;6.972;2022-11-25T10:16:22;100943.88;;;9.27;91.11
54194;BME280;40102;50.906;6.972;2022-11-25T10:18:55;100931.31;;;9.29;90.57
54194;BME280;40102;50.906;6.972;2022-11-25T10:21:23;100938.44;;;9.29;90.78
54194;BME280;40102;50.906;6.972;2022-11-25T10:23:48;100944.66;;;9.29;90.27
54194;BME280;40102;50.906;6.972;2022-11-25T10:26:14;100949.06;;;9.30;88.43
54194;BME280;40102;50.906;6.972;2022-11-25T10:28:42;100957.78;;;9.34;88.60
54194;BME280;40102;50.906;6.972;2022-11-25T10:31:17;100952.25;;;9.38;88.64
54194;BME280;40102;50.906;6.972;2022-11-25T10:33:44;100956.34;;;9.46;87.32
54194;BME280;40102;50.906;6.972;2022-11-25T10:36:13;100958.88;;;9.49;86.97
54194;BME280;40102;50.906;6.972;2022-11-25T10:38:44;100960.59;;;9.50;87.15
54194;BME280;40102;50.906;6.972;2022-11-25T10:41:15;100972.06;;;9.52;86.79
54194;BME280;40102;50.906;6.972;2022-11-25T10:43:42;100967.69;;;9.51;86.04
54194;BME280;40102;50.906;6.972;2022-11-25T10:46:30;100971.00;;;9.56;85.94
54194;BME280;40102;50.906;6.972;2022-11-25T10:57:19;100985.78;;;9.63;85.58
54194;BME280;40102;50.906;6.972;2022-11-25T10:59:30;100984.84;;;9.64;85.44
54194;BME280;40102;50.906;6.972;2022-11-25T11:02:12;100978.56;;;9.65;85.66
54194;BME280;40102;50.906;6.972;2022-11-25T11:05:43;100977.78;;;9.63;85.99
54194;BME280;40102;50.906;6.972;2022-11-25T11:07:34;100976.69;;;9.67;85.50
54194;BME280;40102;50.906;6.972;2022-11-25T11:10:12;100982.91;;;9.67;85.86
54194;BME280;40102;50.906;6.972;2022-11-25T11:12:38;100991.00;;;9.66;85.55
54194;BME280;40102;50.906;6.972;2022-11-25T11:15:14;100986.59;;;9.65;84.76
54194;BME280;40102;50.906;6.972;2022-11-25T11:17:42;100992.72;;;9.67;84.83
54194;BME280;40102;50.906;6.972;2022-11-25T11:22:34;100993.66;;;9.66;84.44
54194;BME280;40102;50.906;6.972;2022-11-25T11:25:21;101014.09;;;9.67;84.17
54194;BME280;40102;50.906;6.972;2022-11-25T11:27:48;101015.44;;;9.76;83.33
54194;BME280;40102;50.906;6.972;2022-11-25T11:32:39;101011.06;;;9.74;83.31
54194;BME280;40102;50.906;6.972;2022-11-25T11:38:13;101021.88;;;9.71;83.57
54194;BME280;40102;50.906;6.972;2022-11-25T11:40:46;101007.50;;;9.74;83.84
54194;BME280;40102;50.906;6.972;2022-11-25T11:50:44;101017.13;;;9.78;83.74
54194;BME280;40102;50.906;6.972;2022-11-25T11:53:21;101021.38;;;9.82;84.00
54194;BME280;40102;50.906;6.972;2022-11-25T12:03:23;101027.50;;;10.03;82.09
54194;BME280;40102;50.906;6.972;2022-11-25T12:05:51;101030.31;;;10.00;81.65
54194;BME280;40102;50.906;6.972;2022-11-25T12:08:30;101039.34;;;9.97;81.67
54194;BME280;40102;50.906;6.972;2022-11-25T12:11:01;101031.09;;;10.02;82.68
54194;BME280;40102;50.906;6.972;2022-11-25T12:24:02;101033.56;;;10.77;80.12
54194;BME280;40102;50.906;6.972;2022-11-25T12:29:12;101043.84;;;11.19;75.25
54194;BME280;40102;50.906;6.972;2022-11-25T12:31:44;101053.13;;;11.29;74.69
54194;BME280;40102;50.906;6.972;2022-11-25T12:34:12;101047.69;;;11.31;74.80
54194;BME280;40102;50.906;6.972;2022-11-25T12:36:42;101050.66;;;11.42;73.96
54194;BME280;40102;50.906;6.972;2022-11-25T12:42:19;101071.59;;;11.51;73.04
54194;BME280;40102;50.906;6.972;2022-11-25T12:44:52;101070.25;;;11.43;72.82
54194;BME280;40102;50.906;6.972;2022-11-25T12:47:23;101070.59;;;11.36;73.49
54194;BME280;40102;50.906;6.972;2022-11-25T12:49:49;101075.09;;;11.36;74.36
54194;BME280;40102;50.906;6.972;2022-11-25T12:59:50;101082.66;;;11.61;71.83
54194;BME280;40102;50.906;6.972;2022-11-25T13:15:17;101096.97;;;11.44;72.25
54194;BME280;40102;50.906;6.972;2022-11-25T13:17:44;101095.94;;;11.47;71.11
54194;BME280;40102;50.906;6.972;2022-11-25T13:25:31;101113.28;;;11.40;72.22
54194;BME280;40102;50.906;6.972;2022-11-25T13:27:59;101117.69;;;11.41;71.14
54194;BME280;40102;50.906;6.972;2022-11-25T13:35:34;101121.31;;;11.40;71.42
54194;BME280;40102;50.906;6.972;2022-11-25T13:37:59;101128.78;;;11.50;70.69
54194;BME280;40102;50.906;6.972;2022-11-25T13:42:50;101122.63;;;11.48;71.88
54194;BME280;40102;50.906;6.972;2022-11-25T13:45:26;101127.28;;;11.45;73.76
54194;BME280;40102;50.906;6.972;2022-11-25T13:47:52;101128.41;;;11.41;74.21
54194;BME280;40102;50.906;6.972;2022-11-25T13:50:21;101137.31;;;11.41;73.02
54194;BME280;40102;50.906;6.972;2022-11-25T13:52:48;101150.38;;;11.47;70.93
54194;BME280;40102;50.906;6.972;2022-11-25T13:55:22;101148.56;;;11.48;70.73
54194;BME280;40102;50.906;6.972;2022-11-25T14:05:49;101155.63;;;11.66;69.53
54194;BME280;40102;50.906;6.972;2022-11-25T14:10:44;101161.16;;;11.80;69.47
54194;BME280;40102;50.906;6.972;2022-11-25T14:26:29;101175.25;;;11.66;70.40
54194;BME280;40102;50.906;6.972;2022-11-25T14:29:07;101181.56;;;11.65;70.52
54194;BME280;40102;50.906;6.972;2022-11-25T14:31:38;101183.22;;;11.68;70.22
54194;BME280;40102;50.906;6.972;2022-11-25T14:34:12;101179.81;;;11.64;70.28
54194;BME280;40102;50.906;6.972;2022-11-25T14:36:40;101188.09;;;11.60;70.91
54194;BME280;40102;50.906;6.972;2022-11-25T14:39:08;101188.19;;;11.58;71.06
54194;BME280;40102;50.906;6.972;2022-11-25T14:41:40;101192.69;;;11.58;71.19
54194;BME280;40102;50.906;6.972;2022-11-25T14:44:11;101200.78;;;11.56;70.94
54194;BME280;40102;50.906;6.972;2022-11-25T14:46:50;101200.09;;;11.53;71.13
54194;BME280;40102;50.906;6.972;2022-11-25T14:49:16;101203.88;;;11.49;71.14
54194;BME280;40102;50.906;6.972;2022-11-25T14:51:41;101200.41;;;11.47;71.30
54194;BME280;40102;50.906;6.972;2022-11-25T14:54:07;101210.66;;;11.39;71.56
54194;BME280;40102;50.906;6.972;2022-11-25T14:56:33;101213.56;;;11.34;71.64
54194;BME280;40102;50.906;6.972;2022-11-25T14:58:59;101210.09;;;11.32;71.78
54194;BME280;40102;50.906;6.972;2022-11-25T15:01:29;101214.56;;;11.31;72.10
54194;BME280;40102;50.906;6.972;2022-11-25T15:04:12;101217.34;;;11.30;71.91
54194;BME280;40102;50.906;6.972;2022-11-25T15:06:40;101225.53;;;11.27;72.17
54194;BME280;40102;50.906;6.972;2022-11-25T15:09:23;101218.59;;;11.23;72.08
54194;BME280;40102;50.906;6.972;2022-11-25T15:11:52;101224.97;;;11.20;72.40